Time;durP1;ratioP1;P1;durP2;ratioP2;P2;SDS_P1;SDS_P2;PMS_P1;PMS_P2;Temp;Humidity;BMP_temperature;BMP_pressure;BME280_temperature;BME280_humidity;BME280_pressure;Samples;Min_cycle;Max_cycle;Signal;HPM_P1;HPM_P2
2022/10/02 00:00:01;;;;;;;3.80;3.40;;;19.10;88.00;;;;;;5063932;28;20525;-79
2022/10/02 00:02:38;;;;;;;4.53;3.28;;;19.10;88.00;;;;;;5061230;28;20120;-80
2022/10/02 00:05:06;;;;;;;3.53;3.15;;;19.10;87.90;;;;;;5065116;28;20079;-80
2022/10/02 00:07:44;;;;;;;3.35;3.05;;;19.10;87.80;;;;;;5059620;28;20414;-79
2022/10/02 00:10:27;;;;;;;3.50;3.08;;;19.10;87.80;;;;;;5062263;28;20059;-80
2022/10/02 00:12:57;;;;;;;3.90;3.15;;;19.10;88.30;;;;;;5061899;28;20036;-79
2022/10/02 00:15:29;;;;;;;3.13;2.83;;;19.10;87.70;;;;;;5061286;28;20056;-79
2022/10/02 00:18:01;;;;;;;5.60;3.42;;;19.10;87.70;;;;;;5061642;28;20564;-79
2022/10/02 00:20:38;;;;;;;4.07;3.67;;;19.00;87.40;;;;;;5065210;28;20037;-79
2022/10/02 00:23:32;;;;;;;3.55;3.25;;;19.10;87.40;;;;;;5060099;28;20529;-80
2022/10/02 00:26:13;;;;;;;3.60;3.30;;;19.00;87.70;;;;;;5061205;28;20036;-80
2022/10/02 00:28:51;;;;;;;3.95;3.35;;;19.00;87.50;;;;;;5064841;28;20029;-78
2022/10/02 00:31:46;;;;;;;3.85;3.45;;;19.00;86.80;;;;;;5060037;28;20024;-80
2022/10/02 00:34:46;;;;;;;3.08;2.80;;;19.00;86.60;;;;;;5064528;28;20467;-79
2022/10/02 00:37:15;;;;;;;3.45;2.88;;;19.00;86.30;;;;;;5059743;28;20047;-79
2022/10/02 00:40:08;;;;;;;3.30;3.00;;;19.00;86.00;;;;;;5060456;28;20060;-79
2022/10/02 00:42:49;;;;;;;3.38;3.00;;;18.90;86.20;;;;;;5060989;28;20414;-80
2022/10/02 00:45:18;;;;;;;3.22;2.92;;;18.90;86.20;;;;;;5060809;28;20055;-79
2022/10/02 00:47:54;;;;;;;3.65;3.25;;;18.90;86.20;;;;;;5059844;28;20081;-79
2022/10/02 00:50:51;;;;;;;3.22;2.90;;;18.90;86.00;;;;;;5062538;28;20861;-78
2022/10/02 00:53:44;;;;;;;3.97;2.63;;;18.90;86.10;;;;;;5079237;28;20081;-79
2022/10/02 00:56:26;;;;;;;2.92;2.63;;;18.90;85.90;;;;;;5059197;28;20116;-79
2022/10/02 00:59:14;;;;;;;2.53;2.33;;;18.90;85.60;;;;;;5060257;28;20048;-80
2022/10/02 01:02:03;;;;;;;3.13;2.70;;;18.90;86.00;;;;;;5061218;28;20044;-79
2022/10/02 01:04:36;;;;;;;2.92;2.70;;;18.80;85.80;;;;;;5061618;28;20029;-80
2022/10/02 01:07:05;;;;;;;3.30;3.00;;;18.90;85.10;;;;;;5061884;28;20033;-79
2022/10/02 01:09:32;;;;;;;2.60;2.40;;;18.80;85.40;;;;;;5062981;28;20025;-80
2022/10/02 01:11:59;;;;;;;3.17;2.50;;;18.80;85.70;;;;;;5060878;28;20032;-80
2022/10/02 01:14:32;;;;;;;4.00;2.80;;;18.80;85.00;;;;;;5061680;28;20029;-80
2022/10/02 01:16:58;;;;;;;2.50;2.30;;;18.80;85.00;;;;;;5047808;28;20049;-79
2022/10/02 01:19:44;;;;;;;2.30;2.10;;;18.80;84.40;;;;;;5059588;28;20072;-79
2022/10/02 01:22:21;;;;;;;2.40;2.20;;;18.70;83.80;;;;;;5056517;28;20032;-79
2022/10/02 01:24:51;;;;;;;2.05;1.83;;;18.70;83.70;;;;;;5060380;28;20036;-77
2022/10/02 01:27:17;;;;;;;3.72;2.00;;;18.80;84.00;;;;;;5059015;28;20056;-83
2022/10/02 01:29:51;;;;;;;2.40;2.20;;;18.70;83.80;;;;;;5048646;28;20067;-82
2022/10/02 01:32:17;;;;;;;2.05;1.80;;;18.70;83.90;;;;;;5059889;28;20414;-82
2022/10/02 01:34:44;;;;;;;2.45;2.03;;;18.70;83.60;;;;;;5041580;28;20054;-81
2022/10/02 01:37:11;;;;;;;2.45;2.25;;;18.70;83.60;;;;;;5060443;28;20033;-79
2022/10/02 01:39:38;;;;;;;2.08;1.98;;;18.70;83.40;;;;;;5060784;28;20032;-82
2022/10/02 01:42:04;;;;;;;3.58;2.00;;;18.60;83.20;;;;;;5063292;28;20506;-82
2022/10/02 01:44:30;;;;;;;2.03;1.90;;;18.70;83.20;;;;;;5063816;28;20047;-82
2022/10/02 01:47:11;;;;;;;2.30;2.10;;;18.70;83.50;;;;;;5060425;28;20032;-82
2022/10/02 01:49:45;;;;;;;2.53;2.25;;;18.60;83.30;;;;;;5062358;28;20040;-82
2022/10/02 01:52:41;;;;;;;2.22;2.03;;;18.60;83.20;;;;;;5041885;28;20041;-81
2022/10/02 01:55:07;;;;;;;2.53;1.98;;;18.60;83.20;;;;;;5042847;28;20035;-82
2022/10/02 01:57:53;;;;;;;2.42;2.15;;;18.60;82.60;;;;;;5060085;28;20032;-81
2022/10/02 02:00:24;;;;;;;2.28;2.03;;;18.60;82.70;;;;;;5005113;28;20124;-81
2022/10/02 02:03:11;;;;;;;1.85;1.73;;;18.50;82.60;;;;;;5007428;28;20030;-83
2022/10/02 02:05:49;;;;;;;1.40;1.30;;;18.50;82.40;;;;;;5023707;28;20029;-81
2022/10/02 02:08:24;;;;;;;1.75;1.65;;;18.50;82.00;;;;;;5003121;28;20532;-83
2022/10/02 02:10:59;;;;;;;;;;;18.50;82.00;;;;;;5024369;28;20033;-82
2022/10/02 02:13:31;;;;;;;1.50;1.40;;;18.50;82.10;;;;;;5022234;28;19959;-82
2022/10/02 02:16:30;;;;;;;1.95;1.60;;;18.50;81.70;;;;;;5023647;28;20431;-81
2022/10/02 02:19:20;;;;;;;1.60;1.50;;;18.40;81.60;;;;;;5002465;28;20044;-81
2022/10/02 02:21:49;;;;;;;1.83;1.48;;;18.40;81.80;;;;;;4991773;28;20065;-83
2022/10/02 02:24:39;;;;;;;1.35;1.23;;;18.40;81.50;;;;;;5026558;28;20036;-83
2022/10/02 02:27:06;;;;;;;1.48;1.38;;;18.30;81.60;;;;;;5023909;28;20090;-83
2022/10/02 02:29:36;;;;;;;1.40;1.15;;;18.40;82.20;;;;;;5007221;28;20061;-83
2022/10/02 02:32:07;;;;;;;1.77;1.40;;;18.40;81.60;;;;;;5005646;28;20064;-82
2022/10/02 02:34:43;;;;;;;1.50;1.23;;;18.40;81.80;;;;;;5008672;28;20515;-83
2022/10/02 02:37:15;;;;;;;1.38;1.27;;;18.30;81.30;;;;;;5026876;28;20517;-83
2022/10/02 02:40:06;;;;;;;1.65;1.27;;;18.30;81.20;;;;;;5061528;28;20028;-82
2022/10/02 02:42:39;;;;;;;1.25;1.15;;;18.30;81.30;;;;;;5059076;28;21542;-83
2022/10/02 02:45:18;;;;;;;1.13;1.08;;;18.30;80.90;;;;;;5059768;28;20036;-83
2022/10/02 02:47:51;;;;;;;1.42;0.93;;;18.30;80.50;;;;;;5041941;28;20037;-82
2022/10/02 02:50:30;;;;;;;1.42;1.08;;;18.30;81.10;;;;;;5060079;28;20052;-83
2022/10/02 02:53:03;;;;;;;0.80;0.80;;;18.30;80.80;;;;;;5062239;28;20032;-82
2022/10/02 02:55:55;;;;;;;0.88;0.77;;;18.20;80.70;;;;;;5059603;28;20526;-83
2022/10/02 02:58:41;;;;;;;1.35;0.90;;;18.20;80.60;;;;;;5064444;28;20433;-81
2022/10/02 03:01:07;;;;;;;1.45;0.93;;;18.20;80.10;;;;;;5043347;28;20029;-85
2022/10/02 03:03:34;;;;;;;1.38;0.93;;;18.20;80.30;;;;;;5069412;28;20028;-80
2022/10/02 03:06:37;;;;;;;1.48;0.60;;;18.20;80.50;;;;;;5069711;28;20036;-85
2022/10/02 03:09:06;;;;;;;1.00;0.90;;;18.20;80.70;;;;;;5060790;28;20165;-92
2022/10/02 03:11:52;;;;;;;1.90;1.20;;;18.20;80.40;;;;;;5067396;28;20029;-93
2022/10/02 03:14:37;;;;;;;0.80;0.80;;;18.20;79.60;;;;;;5067256;28;20028;-92
2022/10/02 03:17:27;;;;;;;0.70;0.70;;;18.10;80.50;;;;;;5044310;28;20523;-90
2022/10/02 03:20:20;;;;;;;0.60;0.60;;;18.10;80.40;;;;;;5063629;28;20044;-90
2022/10/02 03:23:01;;;;;;;1.88;1.15;;;18.10;80.50;;;;;;5047569;28;20035;-91
2022/10/02 03:25:30;;;;;;;1.92;0.80;;;18.10;80.10;;;;;;5064344;28;20080;-88
2022/10/02 03:28:07;;;;;;;1.02;0.70;;;18.10;80.40;;;;;;5066384;28;20134;-91
2022/10/02 03:30:36;;;;;;;1.45;0.90;;;18.10;80.30;;;;;;5080789;28;20041;-89
2022/10/02 03:33:04;;;;;;;1.60;0.75;;;18.10;80.40;;;;;;5076349;28;20506;-87
2022/10/02 03:35:31;;;;;;;0.70;0.70;;;18.10;80.40;;;;;;5080000;28;20044;-90
2022/10/02 03:38:04;;;;;;;0.85;0.65;;;18.10;80.10;;;;;;5073253;28;20043;-80
2022/10/02 03:40:30;;;;;;;0.77;0.70;;;18.10;80.20;;;;;;5091485;28;20044;-87
2022/10/02 03:42:57;;;;;;;1.85;0.70;;;18.10;80.00;;;;;;5090484;28;20109;-82
2022/10/02 03:45:24;;;;;;;1.73;0.73;;;18.00;79.80;;;;;;5087472;28;20062;-78
2022/10/02 03:47:50;;;;;;;0.88;0.88;;;18.00;79.90;;;;;;5077476;28;20084;-90
2022/10/02 03:50:16;;;;;;;0.50;0.50;;;18.00;80.00;;;;;;5076243;28;20048;-89
2022/10/02 03:52:43;;;;;;;0.60;0.60;;;18.00;79.80;;;;;;5069819;28;20096;-81
2022/10/02 03:55:31;;;;;;;1.02;0.82;;;18.00;79.90;;;;;;5085759;28;20071;-90
2022/10/02 03:57:57;;;;;;;1.23;0.70;;;18.00;80.00;;;;;;5082091;28;20035;-88
2022/10/02 04:00:34;;;;;;;0.77;0.70;;;18.00;79.50;;;;;;5080421;28;20036;-93
2022/10/02 04:03:29;;;;;;;1.63;0.60;;;18.00;79.70;;;;;;5078387;28;20172;-85
2022/10/02 04:06:27;;;;;;;1.92;0.50;;;18.00;79.50;;;;;;5071662;28;20182;-92
2022/10/02 04:08:59;;;;;;;1.25;0.40;;;18.00;79.20;;;;;;5069812;28;20032;-89
2022/10/02 04:12:15;;;;;;;0.70;0.70;;;18.00;79.30;;;;;;5064936;28;20036;-89
2022/10/02 04:14:52;;;;;;;0.47;0.47;;;17.90;79.10;;;;;;5063324;28;20037;-86
2022/10/02 04:17:26;;;;;;;0.45;0.35;;;17.90;78.80;;;;;;5062447;28;20033;-94
2022/10/02 04:19:55;;;;;;;0.68;0.47;;;17.90;78.50;;;;;;5083345;28;20109;-93
2022/10/02 04:22:41;;;;;;;0.32;0.32;;;17.90;78.50;;;;;;5067913;28;20093;-84
2022/10/02 04:25:23;;;;;;;0.40;0.40;;;17.90;78.30;;;;;;5082342;28;20032;-92
2022/10/02 04:27:56;;;;;;;0.50;0.38;;;17.90;78.50;;;;;;5051538;28;20033;-93
2022/10/02 04:30:22;;;;;;;0.40;0.40;;;17.90;78.50;;;;;;5067530;28;20252;-89
2022/10/02 04:32:49;;;;;;;0.52;0.30;;;17.90;78.70;;;;;;5066443;28;20032;-90
2022/10/02 04:35:22;;;;;;;0.90;0.40;;;17.90;78.20;;;;;;5066002;28;20087;-90
2022/10/02 04:38:21;;;;;;;0.63;0.38;;;17.90;77.90;;;;;;5068728;28;20063;-91
2022/10/02 04:41:07;;;;;;;0.40;0.20;;;17.90;77.90;;;;;;5058591;28;20064;-93
2022/10/02 04:44:05;;;;;;;0.30;0.30;;;17.80;77.40;;;;;;5080343;28;20045;-92
2022/10/02 04:46:51;;;;;;;0.20;0.20;;;17.80;78.00;;;;;;5011012;28;20062;-93
2022/10/02 04:49:29;;;;;;;0.40;0.22;;;17.80;77.70;;;;;;5012991;28;20037;-93
2022/10/02 04:52:23;;;;;;;0.40;0.25;;;17.80;77.40;;;;;;4994694;28;20045;-93
2022/10/02 04:55:14;;;;;;;1.55;0.20;;;17.80;77.60;;;;;;5013890;28;20043;-91
2022/10/02 04:57:51;;;;;;;0.10;0.10;;;17.80;77.10;;;;;;4993434;28;20034;-86
2022/10/02 05:00:25;;;;;;;0.28;0.28;;;17.80;77.10;;;;;;4976124;28;20054;-94
2022/10/02 05:03:15;;;;;;;0.73;0.28;;;17.80;77.00;;;;;;4992997;28;20033;-88
2022/10/02 05:06:18;;;;;;;1.70;0.20;;;17.80;77.00;;;;;;5019454;28;20034;-82
2022/10/02 05:09:02;;;;;;;0.30;0.20;;;17.80;76.90;;;;;;4994246;28;20659;-93
2022/10/02 05:11:37;;;;;;;3.03;0.30;;;17.80;76.60;;;;;;5010201;28;20030;-92
2022/10/02 05:14:27;;;;;;;0.40;0.10;;;17.70;76.40;;;;;;4976669;28;20034;-92
2022/10/02 05:17:47;;;;;;;0.17;0.10;;;17.80;76.30;;;;;;5008356;28;20034;-92
2022/10/02 05:20:23;;;;;;;1.35;0.28;;;17.80;76.70;;;;;;4933589;29;20047;-89
2022/10/02 05:23:09;;;;;;;0.10;0.10;;;17.80;75.90;;;;;;4949457;28;20072;-92
2022/10/02 05:26:04;;;;;;;0.43;0.22;;;17.80;76.20;;;;;;4984929;28;20142;-93
2022/10/02 05:29:06;;;;;;;0.10;0.10;;;17.80;76.20;;;;;;4984684;28;20034;-94
2022/10/02 05:31:41;;;;;;;1.08;0.17;;;17.80;76.60;;;;;;4989212;28;20045;-88
2022/10/02 05:34:44;;;;;;;0.38;0.15;;;17.70;76.20;;;;;;4970246;28;20154;-94
2022/10/02 05:37:42;;;;;;;0.20;0.20;;;17.70;76.40;;;;;;4982679;28;20079;-94
2022/10/02 05:40:23;;;;;;;0.82;0.10;;;17.70;76.20;;;;;;4985237;28;20031;-91
2022/10/02 05:43:04;;;;;;;0.30;0.20;;;17.70;76.40;;;;;;4985213;28;20596;-95
2022/10/02 05:45:50;;;;;;;0.30;0.20;;;17.70;76.70;;;;;;4982432;28;20058;-95
2022/10/02 05:48:22;;;;;;;0.10;0.10;;;17.70;76.70;;;;;;4952621;28;20232;-91
2022/10/02 05:50:53;;;;;;;1.55;0.30;;;17.70;76.10;;;;;;4982995;28;20245;-95
2022/10/02 05:53:58;;;;;;;0.77;0.32;;;17.70;76.00;;;;;;4983820;28;20042;-94
2022/10/02 05:56:36;;;;;;;0.30;0.20;;;17.70;75.50;;;;;;5019326;28;20045;-93
2022/10/02 05:59:11;;;;;;;1.20;0.35;;;17.70;75.40;;;;;;5027207;28;20128;-92
2022/10/02 06:01:43;;;;;;;0.10;0.10;;;17.60;75.00;;;;;;5013825;28;20037;-92
2022/10/02 06:04:29;;;;;;;0.20;0.20;;;17.60;75.20;;;;;;4996215;28;20048;-89
2022/10/02 06:07:00;;;;;;;0.22;0.22;;;17.70;75.90;;;;;;5026512;28;20103;-91
2022/10/02 06:09:40;;;;;;;0.43;0.30;;;17.60;75.70;;;;;;5028704;28;20133;-90
2022/10/02 06:12:13;;;;;;;0.75;0.28;;;17.70;75.80;;;;;;5010248;28;20039;-87
2022/10/02 06:14:59;;;;;;;0.68;0.20;;;17.70;75.50;;;;;;4990195;28;20041;-82
2022/10/02 06:17:38;;;;;;;1.20;0.32;;;17.70;75.50;;;;;;5023242;28;20045;-84
2022/10/02 06:20:15;;;;;;;0.20;0.20;;;17.70;75.30;;;;;;5023066;28;20041;-85
2022/10/02 06:23:00;;;;;;;0.30;0.20;;;17.70;75.30;;;;;;5022839;28;20137;-82
2022/10/02 06:25:47;;;;;;;0.25;0.17;;;17.60;75.00;;;;;;5006685;28;20034;-82
2022/10/02 06:28:25;;;;;;;0.20;0.20;;;17.70;75.10;;;;;;5022656;28;20048;-81
2022/10/02 06:31:08;;;;;;;0.13;0.10;;;17.70;75.00;;;;;;5043500;28;20091;-83
2022/10/02 06:33:34;;;;;;;1.08;0.25;;;17.70;75.10;;;;;;5042104;28;20124;-87
2022/10/02 06:36:16;;;;;;;0.95;0.22;;;17.70;74.80;;;;;;5041183;28;20036;-83
2022/10/02 06:39:07;;;;;;;0.40;0.30;;;17.60;75.20;;;;;;5058626;28;20064;-82
2022/10/02 06:41:53;;;;;;;1.25;0.28;;;17.60;74.70;;;;;;5059698;28;20040;-81
2022/10/02 06:44:28;;;;;;;0.20;0.20;;;17.70;75.30;;;;;;5045387;28;20041;-82
2022/10/02 06:46:56;;;;;;;0.85;0.30;;;17.60;75.00;;;;;;5077468;28;20043;-86
2022/10/02 06:49:45;;;;;;;1.13;0.20;;;17.60;75.10;;;;;;5059396;28;20123;-83
2022/10/02 06:52:14;;;;;;;0.40;0.40;;;17.60;74.90;;;;;;5041190;28;20519;-83
2022/10/02 06:55:06;;;;;;;3.22;0.60;;;17.60;74.70;;;;;;5043064;28;20123;-88
2022/10/02 06:57:56;;;;;;;0.40;0.30;;;17.60;74.90;;;;;;5061974;28;20087;-84
2022/10/02 07:00:22;;;;;;;1.67;0.13;;;17.60;75.20;;;;;;5060324;28;20064;-85
2022/10/02 07:03:02;;;;;;;3.25;0.30;;;17.60;74.90;;;;;;5079138;28;20500;-84
2022/10/02 07:05:52;;;;;;;1.85;0.20;;;17.60;74.70;;;;;;5034560;28;20029;-84
2022/10/02 07:08:45;;;;;;;1.15;0.20;;;17.60;74.20;;;;;;5062809;28;20577;-88
2022/10/02 07:11:33;;;;;;;0.82;0.40;;;17.60;74.80;;;;;;5065050;28;20032;-91
2022/10/02 07:14:37;;;;;;;0.35;0.30;;;17.60;74.90;;;;;;5065586;28;20040;-87
2022/10/02 07:17:06;;;;;;;0.20;0.20;;;17.60;75.20;;;;;;5063336;28;20041;-84
2022/10/02 07:20:03;;;;;;;0.47;0.13;;;17.60;75.20;;;;;;5048113;28;20041;-86
2022/10/02 07:22:44;;;;;;;0.47;0.32;;;17.60;75.10;;;;;;5064026;28;20029;-83
2022/10/02 07:25:28;;;;;;;0.30;0.20;;;17.60;75.20;;;;;;5074181;28;20406;-86
2022/10/02 07:28:16;;;;;;;0.50;0.40;;;17.60;75.30;;;;;;5061358;28;20067;-81
2022/10/02 07:30:54;;;;;;;4.03;0.85;;;17.60;75.40;;;;;;5066303;28;20133;-85
2022/10/02 07:33:27;;;;;;;0.40;0.30;;;17.60;74.60;;;;;;5072490;28;20059;-88
2022/10/02 07:36:14;;;;;;;1.38;0.17;;;17.60;75.30;;;;;;5072591;28;20060;-84
2022/10/02 07:38:54;;;;;;;2.40;0.38;;;17.60;75.00;;;;;;5069956;28;20033;-85
2022/10/02 07:41:54;;;;;;;5.55;0.77;;;17.60;75.30;;;;;;5071045;28;20446;-83
2022/10/02 07:44:41;;;;;;;0.38;0.30;;;17.60;75.20;;;;;;5065504;28;20053;-81
2022/10/02 07:47:39;;;;;;;2.30;0.63;;;17.60;75.10;;;;;;5072934;28;20523;-83
2022/10/02 07:50:24;;;;;;;1.27;0.57;;;17.60;75.30;;;;;;5078009;28;20055;-80
2022/10/02 07:52:55;;;;;;;2.70;0.50;;;17.60;75.50;;;;;;5043804;28;20033;-81
2022/10/02 07:55:24;;;;;;;1.92;0.68;;;17.70;76.00;;;;;;5061327;28;20040;-81
2022/10/02 07:58:15;;;;;;;2.13;0.40;;;17.80;76.10;;;;;;5012783;28;20119;-80
2022/10/02 08:00:52;;;;;;;1.38;0.30;;;17.90;75.50;;;;;;5062603;28;20037;-81
2022/10/02 08:04:07;;;;;;;2.70;0.32;;;17.90;75.50;;;;;;5063569;28;20131;-81
2022/10/02 08:06:38;;;;;;;1.83;0.30;;;18.00;75.60;;;;;;5048379;28;20092;-84
2022/10/02 08:09:21;;;;;;;1.42;0.40;;;18.20;75.00;;;;;;5043923;28;20032;-82
2022/10/02 08:12:01;;;;;;;1.35;0.50;;;18.20;74.90;;;;;;5061498;28;20032;-81
2022/10/02 08:14:41;;;;;;;0.80;0.32;;;18.30;74.20;;;;;;5046055;28;20078;-82
2022/10/02 08:17:32;;;;;;;3.72;0.40;;;18.30;73.60;;;;;;5062373;28;20044;-83
2022/10/02 08:20:23;;;;;;;0.98;0.50;;;18.40;72.50;;;;;;5049480;28;20075;-82
2022/10/02 08:22:54;;;;;;;0.60;0.40;;;18.40;72.90;;;;;;5063264;28;20039;-86
2022/10/02 08:25:37;;;;;;;0.80;0.30;;;18.40;71.40;;;;;;5063139;28;20108;-82
2022/10/02 08:28:26;;;;;;;6.13;0.80;;;18.40;71.60;;;;;;5058279;28;20043;-86
2022/10/02 08:30:53;;;;;;;0.40;0.40;;;18.40;71.80;;;;;;5062706;28;20052;-79
2022/10/02 08:33:21;;;;;;;2.15;0.60;;;18.40;72.70;;;;;;5060468;28;20515;-77
2022/10/02 08:36:02;;;;;;;0.38;0.20;;;18.40;71.80;;;;;;5058553;28;20515;-76
2022/10/02 08:38:45;;;;;;;1.00;0.40;;;18.40;71.80;;;;;;5060903;28;20064;-77
2022/10/02 08:41:48;;;;;;;9.32;0.70;;;18.40;73.30;;;;;;5058413;28;20044;-78
2022/10/02 08:44:35;;;;;;;1.25;0.40;;;18.50;72.40;;;;;;5060353;28;20032;-77
2022/10/02 08:47:17;;;;;;;0.68;0.40;;;18.60;72.00;;;;;;5061121;28;20044;-76
2022/10/02 08:49:55;;;;;;;0.75;0.40;;;18.60;71.80;;;;;;5058929;28;20387;-79
2022/10/02 08:52:37;;;;;;;4.75;0.80;;;18.60;71.40;;;;;;5058565;28;20047;-78
2022/10/02 08:55:34;;;;;;;3.97;0.93;;;18.60;71.80;;;;;;5059243;28;20580;-79
2022/10/02 08:58:09;;;;;;;1.33;0.47;;;18.70;71.90;;;;;;5059252;28;20032;-78
2022/10/02 09:00:44;;;;;;;2.60;0.70;;;18.70;70.90;;;;;;5060167;28;20557;-76
2022/10/02 09:03:32;;;;;;;0.90;0.55;;;18.70;71.50;;;;;;5058571;28;20103;-77
2022/10/02 09:06:37;;;;;;;2.45;0.73;;;18.70;71.70;;;;;;5059161;28;20039;-77
2022/10/02 09:09:22;;;;;;;3.03;0.77;;;18.70;72.60;;;;;;5058861;28;20029;-77
2022/10/02 09:12:10;;;;;;;3.63;0.30;;;18.80;71.40;;;;;;5058181;28;20111;-76
2022/10/02 09:14:48;;;;;;;10.05;1.08;;;18.70;75.40;;;;;;5058085;28;20385;-74
2022/10/02 09:17:35;;;;;;;14.43;1.48;;;18.90;78.50;;;;;;5046930;28;20055;-77
2022/10/02 09:20:14;;;;;;;6.70;0.80;;;19.10;78.40;;;;;;5059336;28;20253;-81
2022/10/02 09:23:08;;;;;;;5.72;1.08;;;19.20;77.90;;;;;;5041246;28;20392;-79
2022/10/02 09:25:39;;;;;;;2.72;0.90;;;19.40;77.60;;;;;;5057221;28;20037;-74
2022/10/02 09:28:13;;;;;;;5.22;0.77;;;19.40;77.70;;;;;;5058272;28;20119;-75
2022/10/02 09:31:02;;;;;;;5.45;0.88;;;19.50;76.80;;;;;;5059842;28;20452;-72
2022/10/02 09:33:59;;;;;;;3.42;0.60;;;19.60;77.20;;;;;;5057935;28;20098;-73
2022/10/02 09:36:50;;;;;;;5.95;1.08;;;19.70;77.00;;;;;;5057678;28;20106;-72
2022/10/02 09:39:53;;;;;;;4.82;0.88;;;19.80;77.20;;;;;;5056483;28;20068;-71
2022/10/02 09:42:22;;;;;;;9.05;1.20;;;19.90;77.80;;;;;;5057753;28;20051;-71
2022/10/02 09:45:06;;;;;;;6.90;0.98;;;20.00;76.30;;;;;;5066936;28;20132;-72
2022/10/02 09:47:37;;;;;;;3.17;0.88;;;20.00;76.60;;;;;;5063440;28;20402;-73
2022/10/02 09:50:03;;;;;;;13.05;1.92;;;20.10;76.70;;;;;;5048609;28;20676;-77
2022/10/02 09:52:44;;;;;;;2.30;1.00;;;20.10;74.10;;;;;;5060428;28;20156;-78
2022/10/02 09:55:42;;;;;;;5.25;1.05;;;20.10;72.60;;;;;;5073454;28;20029;-76
2022/10/02 09:58:42;;;;;;;1.63;0.82;;;20.10;72.70;;;;;;5060045;28;20115;-77
2022/10/02 10:01:11;;;;;;;1.95;0.80;;;20.00;70.60;;;;;;5061518;28;20123;-78
2022/10/02 10:04:13;;;;;;;1.25;0.55;;;20.00;70.20;;;;;;5061159;28;20542;-77
2022/10/02 10:07:10;;;;;;;0.95;0.63;;;19.80;69.60;;;;;;5033776;28;20045;-78
2022/10/02 10:10:05;;;;;;;3.80;0.70;;;19.80;69.70;;;;;;5035298;28;20041;-78
2022/10/02 10:12:55;;;;;;;15.52;1.08;;;19.80;70.30;;;;;;5033887;28;20034;-78
2022/10/02 10:16:01;;;;;;;3.50;0.90;;;19.70;70.10;;;;;;5034876;28;20520;-80
2022/10/02 10:18:46;;;;;;;1.38;0.75;;;19.70;70.60;;;;;;5024483;28;20041;-73
2022/10/02 10:21:18;;;;;;;;;;;19.70;70.10;;;;;;5026647;28;20143;-75
2022/10/02 10:24:03;;;;;;;1.73;0.60;;;19.70;69.60;;;;;;5032272;28;19924;-76
2022/10/02 10:26:48;;;;;;;2.58;0.80;;;19.60;69.30;;;;;;5045700;28;20026;-73
2022/10/02 10:29:44;;;;;;;1.85;0.63;;;19.60;69.10;;;;;;5045383;28;20067;-74
2022/10/02 10:32:43;;;;;;;1.65;0.60;;;19.50;68.60;;;;;;5040191;28;20512;-73
2022/10/02 10:35:21;;;;;;;1.85;0.70;;;19.60;69.60;;;;;;5038057;28;20513;-78
2022/10/02 10:41:08;;;;;;;0.95;0.55;;;19.60;70.50;;;;;;5042586;28;20457;-77
2022/10/02 10:44:08;;;;;;;3.30;0.70;;;19.50;69.80;;;;;;5020864;28;20124;-78
2022/10/02 10:46:40;;;;;;;1.10;0.70;;;19.50;69.80;;;;;;5062636;28;20509;-78
2022/10/02 10:49:09;;;;;;;2.58;0.70;;;19.50;70.10;;;;;;5064550;28;20052;-76
2022/10/02 10:52:06;;;;;;;1.05;0.70;;;19.50;70.10;;;;;;5053686;28;20106;-76
2022/10/02 10:54:43;;;;;;;2.03;0.60;;;19.60;70.60;;;;;;5066821;28;20040;-78
2022/10/02 10:57:25;;;;;;;0.88;0.60;;;19.60;70.70;;;;;;5068364;28;20124;-79
2022/10/02 11:00:25;;;;;;;2.50;0.60;;;19.60;71.10;;;;;;5065184;28;20458;-79
2022/10/02 11:03:15;;;;;;;0.90;0.50;;;19.60;71.20;;;;;;5057653;28;20036;-78
2022/10/02 11:06:12;;;;;;;3.70;0.95;;;19.60;71.50;;;;;;5067877;28;20039;-80
2022/10/02 11:08:57;;;;;;;1.63;1.00;;;19.60;71.40;;;;;;5064057;28;20031;-78
2022/10/02 11:11:43;;;;;;;1.33;0.70;;;19.60;71.10;;;;;;5058962;28;20028;-79
2022/10/02 11:14:15;;;;;;;;;;;19.60;70.20;;;;;;5058261;28;20033;-75
2022/10/02 11:17:02;;;;;;;1.10;0.60;;;19.50;68.80;;;;;;5059154;28;19920;-75
2022/10/02 11:19:51;;;;;;;1.27;1.15;;;19.60;72.70;;;;;;5057110;28;20040;-76
2022/10/02 11:22:38;;;;;;;4.65;0.70;;;19.70;73.10;;;;;;5058498;28;20037;-75
2022/10/02 11:25:38;;;;;;;1.77;0.60;;;19.80;73.10;;;;;;5059304;28;20028;-74
2022/10/02 11:28:36;;;;;;;0.90;0.80;;;19.90;73.00;;;;;;5058307;28;20043;-75
2022/10/02 11:31:24;;;;;;;1.23;0.90;;;20.00;72.90;;;;;;5042636;28;20036;-75
2022/10/02 11:33:53;;;;;;;1.15;0.47;;;20.00;73.10;;;;;;5075846;28;20119;-74
2022/10/02 11:36:41;;;;;;;0.82;0.63;;;20.10;72.50;;;;;;5059619;28;20036;-73
2022/10/02 11:39:31;;;;;;;1.88;0.60;;;20.20;71.80;;;;;;5058053;28;20059;-73
2022/10/02 11:42:22;;;;;;;1.20;0.70;;;20.20;72.00;;;;;;5058236;28;20506;-74
2022/10/02 11:45:15;;;;;;;2.45;0.85;;;20.30;72.10;;;;;;5061852;28;20411;-74
2022/10/02 11:47:50;;;;;;;1.35;0.60;;;20.30;72.40;;;;;;5060407;28;20451;-75
2022/10/02 11:50:43;;;;;;;0.98;0.50;;;20.40;72.10;;;;;;5064132;28;20044;-73
2022/10/02 11:53:25;;;;;;;2.38;0.50;;;20.50;72.10;;;;;;5061640;28;20033;-75
2022/10/02 11:56:21;;;;;;;0.68;0.50;;;20.50;71.70;;;;;;5063916;28;20132;-77
2022/10/02 11:59:08;;;;;;;0.95;0.77;;;20.50;71.70;;;;;;5061543;28;20040;-72
2022/10/02 12:01:53;;;;;;;2.55;1.27;;;20.60;71.20;;;;;;5061044;28;20044;-79
2022/10/02 12:04:33;;;;;;;2.88;1.10;;;20.60;71.10;;;;;;5063815;28;20055;-77
2022/10/02 12:07:21;;;;;;;1.50;0.95;;;20.60;71.00;;;;;;5061088;28;20041;-78
2022/10/02 12:10:08;;;;;;;2.05;0.90;;;20.50;70.70;;;;;;5061503;28;20496;-78
2022/10/02 12:12:50;;;;;;;2.35;0.70;;;20.50;71.00;;;;;;5062063;28;20461;-77
2022/10/02 12:15:55;;;;;;;1.98;0.80;;;20.50;71.20;;;;;;5062430;28;20044;-76
2022/10/02 12:18:24;;;;;;;2.03;1.00;;;20.40;70.80;;;;;;5065849;28;20032;-76
2022/10/02 12:26:59;;;;;;;3.28;2.40;;;20.40;71.60;;;;;;5075519;28;20480;-79
2022/10/02 12:29:52;;;;;;;3.15;2.15;;;20.30;71.70;;;;;;5058672;28;20036;-78
2022/10/02 12:32:35;;;;;;;3.40;2.03;;;20.30;71.80;;;;;;5061154;28;20110;-78
2022/10/02 12:35:36;;;;;;;3.33;2.13;;;20.30;71.80;;;;;;5062264;28;20024;-78
2022/10/02 12:38:21;;;;;;;1.60;1.50;;;20.30;71.90;;;;;;5060471;28;20410;-78
2022/10/02 12:41:18;;;;;;;2.33;1.40;;;20.20;71.70;;;;;;5060893;28;20081;-79
2022/10/02 12:44:10;;;;;;;7.15;1.20;;;20.20;71.90;;;;;;5046448;28;20120;-77
2022/10/02 12:46:59;;;;;;;3.38;1.42;;;20.20;71.60;;;;;;5057437;28;20037;-78
2022/10/02 12:49:26;;;;;;;2.05;1.02;;;20.10;71.50;;;;;;5058604;28;20047;-80
2022/10/02 12:52:07;;;;;;;1.92;1.30;;;20.10;71.70;;;;;;5060437;28;20351;-77
2022/10/02 12:54:51;;;;;;;2.70;1.27;;;20.10;72.10;;;;;;5058986;28;20090;-77
2022/10/02 12:57:51;;;;;;;2.53;1.10;;;20.10;71.90;;;;;;5045122;28;20068;-76
2022/10/02 13:00:29;;;;;;;4.22;1.00;;;20.10;71.70;;;;;;5058700;28;20044;-79
2022/10/02 13:03:14;;;;;;;2.25;1.35;;;20.00;71.90;;;;;;5058997;28;20033;-87
2022/10/02 13:06:00;;;;;;;1.42;0.70;;;20.00;71.50;;;;;;5064051;28;20037;-85
2022/10/02 13:08:47;;;;;;;0.98;0.85;;;20.00;71.40;;;;;;5065087;28;20035;-86
2022/10/02 13:11:40;;;;;;;1.65;1.13;;;20.00;71.20;;;;;;5059499;28;20029;-88
2022/10/02 13:14:44;;;;;;;2.75;0.80;;;19.90;71.60;;;;;;5078089;28;20042;-85
2022/10/02 13:17:37;;;;;;;1.52;0.90;;;19.90;71.60;;;;;;5060700;28;20037;-86
2022/10/02 13:20:13;;;;;;;1.13;1.00;;;19.90;72.10;;;;;;5045370;28;20043;-86
2022/10/02 13:23:11;;;;;;;3.17;0.95;;;19.90;71.90;;;;;;5062685;28;20044;-85
2022/10/02 13:25:46;;;;;;;1.95;0.93;;;19.90;72.30;;;;;;5059450;28;20062;-88
2022/10/02 13:28:36;;;;;;;0.90;0.88;;;19.90;71.90;;;;;;5062256;28;20618;-86
2022/10/02 13:31:19;;;;;;;3.15;1.02;;;19.90;71.80;;;;;;5059751;28;20032;-86
2022/10/02 13:34:11;;;;;;;2.22;1.05;;;19.80;71.40;;;;;;5043356;28;20125;-87
2022/10/02 13:37:00;;;;;;;3.67;1.83;;;19.80;72.20;;;;;;5054812;28;20048;-89
2022/10/02 13:39:54;;;;;;;6.93;3.30;;;19.80;73.20;;;;;;5058721;28;20045;-84
2022/10/02 13:42:41;;;;;;;3.20;2.08;;;19.80;73.60;;;;;;5043401;28;20055;-85
2022/10/02 13:45:31;;;;;;;4.93;1.60;;;19.80;73.70;;;;;;5058894;28;20510;-79
2022/10/02 13:48:21;;;;;;;4.93;1.42;;;19.80;74.50;;;;;;5058134;28;20584;-82
2022/10/02 13:51:15;;;;;;;2.28;1.52;;;19.80;73.90;;;;;;5058023;28;20048;-87
2022/10/02 13:54:17;;;;;;;4.70;2.08;;;19.80;70.90;;;;;;5062195;28;20118;-86
2022/10/02 13:57:12;;;;;;;5.05;2.22;;;19.60;69.80;;;;;;5007385;28;20038;-86
2022/10/02 13:59:44;;;;;;;6.00;2.47;;;19.60;69.80;;;;;;4999996;28;20043;-77
2022/10/02 14:02:32;;;;;;;3.35;1.70;;;19.50;69.50;;;;;;5017106;28;20085;-85
2022/10/02 14:05:28;;;;;;;6.53;2.10;;;19.50;70.80;;;;;;5021039;28;20045;-83
2022/10/02 14:08:27;;;;;;;3.40;1.83;;;19.40;69.50;;;;;;5020977;28;20034;-85
2022/10/02 14:11:23;;;;;;;4.30;1.80;;;19.30;70.00;;;;;;5018426;28;20512;-87
2022/10/02 14:14:05;;;;;;;5.78;2.20;;;19.30;69.00;;;;;;5005104;28;20425;-84
2022/10/02 14:17:11;;;;;;;2.80;2.13;;;19.30;68.10;;;;;;4996187;28;20088;-85